Terminal Aerodrome Forecast
Issued by NWS

Home | Current Version | Previous Version | Text Only | Print | Product List | Glossary On
Versions: 1 2 3 4 5 6 7 8 9 10 11 12 13 14 15 16 17 18 19 20 21
000
FTUS46 KSEW 170540
TAFOLM
TAF
KOLM 170540Z 1706/1806 22006KT P6SM SCT050
     FM170800 21004KT P6SM OVC012
     FM171900 VRB03KT P6SM BKN020
     FM172100 VRB03KT P6SM SCT250
     FM172300 36006KT P6SM SCT250=

USA.gov is the U.S. government's official web portal to all federal, state and local government web resources and services.